createdAt,value
2022-08-20T00:02:44.341Z,99660.50
2022-08-20T00:05:56.741Z,99654.88
2022-08-20T00:08:59.514Z,99656.59
2022-08-20T00:12:02.592Z,99646.69
2022-08-20T00:15:06.880Z,99645.75
2022-08-20T00:18:10.064Z,99660.34
2022-08-20T00:21:19.123Z,99658.91
2022-08-20T00:24:22.373Z,99650.53
2022-08-20T00:27:25.117Z,99648.53
2022-08-20T00:30:28.143Z,99648.53
2022-08-20T00:33:31.473Z,99654.59
2022-08-20T00:36:34.440Z,99655.69
2022-08-20T00:39:37.229Z,99679.75
2022-08-20T00:42:50.172Z,99701.13
2022-08-20T00:45:56.369Z,99699.72
2022-08-20T00:49:02.269Z,99705.50
2022-08-20T00:52:14.097Z,99720.50
2022-08-20T00:55:19.965Z,99727.97
2022-08-20T00:58:23.083Z,99734.63
2022-08-20T01:01:26.204Z,99730.75
2022-08-20T01:04:33.690Z,99734.94
2022-08-20T01:07:38.153Z,99740.03
2022-08-20T01:10:44.879Z,99731.06
2022-08-20T01:13:48.683Z,99724.97
2022-08-20T01:16:56.848Z,99727.59
2022-08-20T01:20:06.489Z,99687.50
2022-08-20T01:23:27.205Z,99707.53
2022-08-20T01:26:39.796Z,99716.88
2022-08-20T01:29:42.584Z,99714.34
2022-08-20T01:32:45.568Z,99734.00
2022-08-20T01:35:50.330Z,99730.28
2022-08-20T01:38:54.926Z,99724.09
2022-08-20T01:42:19.622Z,99716.34
2022-08-20T01:45:26.865Z,99733.66
2022-08-20T01:48:30.566Z,99738.34
2022-08-20T01:51:33.493Z,99746.41
2022-08-20T01:54:36.308Z,99743.94
2022-08-20T01:57:40.003Z,99751.56
2022-08-20T02:00:43.267Z,99746.75
2022-08-20T02:03:46.303Z,99721.28
2022-08-20T02:06:56.734Z,99750.31
2022-08-20T02:10:00.322Z,99739.31
2022-08-20T02:13:05.628Z,99741.44
2022-08-20T02:16:08.817Z,99743.13
2022-08-20T02:19:16.749Z,99741.09
2022-08-20T02:22:26.115Z,99734.78
2022-08-20T02:25:32.461Z,99735.25
2022-08-20T02:28:35.631Z,99744.66
2022-08-20T02:32:23.466Z,99740.00
2022-08-20T02:35:05.950Z,99744.44
2022-08-20T02:38:10.033Z,99750.97
2022-08-20T02:41:13.511Z,99732.03
2022-08-20T02:44:20.528Z,99729.28
2022-08-20T02:47:23.645Z,99726.16
2022-08-20T02:50:27.640Z,99741.47
2022-08-20T02:53:39.408Z,99763.28
2022-08-20T02:56:42.432Z,99765.28
2022-08-20T02:59:47.418Z,99761.88
2022-08-20T03:02:50.566Z,99751.69
2022-08-20T03:05:57.591Z,99780.19
2022-08-20T03:09:00.912Z,99773.56
2022-08-20T03:12:05.116Z,99774.41
2022-08-20T03:15:17.631Z,99784.53
2022-08-20T03:18:22.699Z,99784.19
2022-08-20T03:21:26.624Z,99771.50
2022-08-20T03:24:29.408Z,99779.28
2022-08-20T03:27:36.515Z,99796.28
2022-08-20T03:30:39.514Z,99804.69
2022-08-20T03:33:48.936Z,99810.72
2022-08-20T03:36:56.332Z,99804.31
2022-08-20T03:39:59.555Z,99801.13
2022-08-20T03:43:02.407Z,99792.25
2022-08-20T03:46:05.497Z,99809.16
2022-08-20T03:49:25.032Z,99807.22
2022-08-20T03:52:29.816Z,99805.69
2022-08-20T03:55:32.619Z,99808.00
2022-08-20T03:58:36.629Z,99816.75
2022-08-20T04:01:46.281Z,99833.09
2022-08-20T04:04:49.819Z,99834.75
2022-08-20T04:07:52.641Z,99840.69
2022-08-20T04:10:57.804Z,99841.72
2022-08-20T04:14:00.468Z,99855.84
2022-08-20T04:17:09.980Z,99867.47
2022-08-20T04:20:15.833Z,99874.38
2022-08-20T04:23:19.296Z,99875.69
2022-08-20T04:26:22.437Z,99874.19
2022-08-20T04:29:26.267Z,99852.41
2022-08-20T04:32:36.908Z,99864.37
2022-08-20T04:35:41.304Z,99885.63
2022-08-20T04:38:49.893Z,99878.53
2022-08-20T04:41:53.911Z,99851.16
2022-08-20T04:44:56.633Z,99878.47
2022-08-20T04:48:05.700Z,99879.56
2022-08-20T04:51:10.133Z,99886.13
2022-08-20T04:54:14.690Z,99895.78
2022-08-20T04:57:17.335Z,99915.34
2022-08-20T05:00:20.321Z,99939.47
2022-08-20T05:03:23.877Z,99956.53
2022-08-20T05:06:30.624Z,99969.41
2022-08-20T05:09:43.649Z,99966.59
2022-08-20T05:12:56.470Z,99958.69
2022-08-20T05:16:02.045Z,99954.44
2022-08-20T05:19:06.897Z,99952.09
2022-08-20T05:22:10.178Z,99966.38
2022-08-20T05:25:13.275Z,99974.00
2022-08-20T05:28:22.888Z,99979.97
2022-08-20T05:31:32.467Z,99986.03
2022-08-20T05:34:36.684Z,99978.81
2022-08-20T05:37:43.608Z,99985.28
2022-08-20T05:40:47.615Z,99987.19
2022-08-20T05:43:51.623Z,99993.06
2022-08-20T05:46:54.396Z,100015.03
2022-08-20T05:49:57.536Z,99997.84
2022-08-20T05:53:01.557Z,99968.38
2022-08-20T06:09:31.158Z,99963.87
2022-08-20T07:40:02.462Z,99770.38
2022-08-20T07:43:05.997Z,99769.78
2022-08-20T07:46:13.347Z,99759.63
2022-08-20T07:49:16.303Z,99802.81
2022-08-20T07:52:19.053Z,99813.31
2022-08-20T07:55:22.151Z,99846.38
2022-08-20T07:58:33.164Z,99863.75
2022-08-20T08:01:36.783Z,99868.66
2022-08-20T08:04:40.057Z,99857.00
2022-08-20T08:07:43.179Z,99869.56
2022-08-20T08:10:52.789Z,99876.56
2022-08-20T08:14:05.447Z,99870.22
2022-08-20T08:17:09.937Z,99870.16
2022-08-20T08:20:13.326Z,99848.97
2022-08-20T08:23:24.528Z,99835.22
2022-08-20T08:26:34.090Z,99853.34
2022-08-20T08:29:37.861Z,99870.19
2022-08-20T08:33:03.133Z,99887.00
2022-08-20T08:36:12.065Z,99904.09
2022-08-20T08:39:14.900Z,99962.28
2022-08-20T08:42:44.067Z,100002.44
2022-08-20T08:45:52.125Z,100074.53
2022-08-20T08:48:58.084Z,100097.50
2022-08-20T08:52:11.950Z,100080.56
2022-08-20T08:55:19.387Z,100062.22
2022-08-20T08:58:22.490Z,100069.94
2022-08-20T09:01:55.423Z,100039.91
2022-08-20T09:04:51.576Z,100007.94
2022-08-20T09:07:54.896Z,100018.66
2022-08-20T09:11:02.677Z,100030.22
2022-08-20T09:14:05.625Z,100030.34
2022-08-20T09:17:08.393Z,100015.50
2022-08-20T09:20:12.099Z,100001.97
2022-08-20T09:23:14.813Z,99993.06
2022-08-20T09:26:17.932Z,99986.50
2022-08-20T09:29:20.595Z,99991.72
2022-08-20T09:32:24.996Z,99986.09
2022-08-20T09:35:29.157Z,99995.56
2022-08-20T09:38:32.824Z,99989.31
2022-08-20T09:41:35.681Z,99984.78
2022-08-20T09:44:39.528Z,99982.19
2022-08-20T09:47:54.783Z,99975.25
2022-08-20T09:51:00.316Z,99978.31
2022-08-20T09:54:03.008Z,99965.41
2022-08-20T09:57:09.582Z,99962.37
2022-08-20T10:00:12.891Z,99966.03
2022-08-20T10:03:16.236Z,99963.37
2022-08-20T10:06:20.553Z,99966.50
2022-08-20T10:09:23.635Z,99978.31
2022-08-20T10:12:26.972Z,99981.88
2022-08-20T10:15:30.309Z,99965.53
2022-08-20T10:18:34.607Z,99972.22
2022-08-20T10:21:39.136Z,99981.47
2022-08-20T10:24:42.784Z,99968.44
2022-08-20T10:27:45.668Z,99962.87
2022-08-20T10:30:48.598Z,99954.16
2022-08-20T10:33:51.274Z,99944.44
2022-08-20T10:36:54.282Z,99964.81
2022-08-20T10:39:57.731Z,99968.69
2022-08-20T10:43:00.811Z,99962.13
2022-08-20T10:46:03.997Z,99972.78
2022-08-20T10:49:06.959Z,99952.88
2022-08-20T10:52:09.622Z,99967.62
2022-08-20T10:55:13.328Z,99979.25
2022-08-20T10:58:16.014Z,99974.47
2022-08-20T11:01:28.741Z,99960.03
2022-08-20T11:04:36.460Z,99957.50
2022-08-20T11:07:50.635Z,99953.91
2022-08-20T11:10:58.977Z,99963.59
2022-08-20T11:14:01.971Z,99946.81
2022-08-20T11:17:05.326Z,99921.25
2022-08-20T11:20:10.819Z,99914.66
2022-08-20T11:23:13.697Z,99918.56
2022-08-20T11:26:22.331Z,99950.59
2022-08-20T11:29:24.951Z,99976.75
2022-08-20T11:32:28.008Z,99988.88
2022-08-20T11:35:49.977Z,99962.13
2022-08-20T11:38:53.262Z,99951.09
2022-08-20T11:41:55.922Z,99957.06
2022-08-20T11:44:58.859Z,99967.72
2022-08-20T11:48:01.570Z,99975.56
2022-08-20T11:51:05.321Z,99998.97
2022-08-20T11:54:07.936Z,100012.38
2022-08-20T11:57:11.462Z,100005.75
2022-08-20T12:00:22.174Z,100000.44
2022-08-20T12:03:36.700Z,99980.16
2022-08-20T12:06:39.434Z,99973.69
2022-08-20T12:09:50.397Z,99963.59
2022-08-20T12:12:55.611Z,99963.25
2022-08-20T12:15:59.820Z,99972.91
2022-08-20T12:19:02.452Z,99956.78
2022-08-20T12:22:24.756Z,99947.78
2022-08-20T12:25:28.159Z,99964.88
2022-08-20T12:28:32.382Z,99948.72
2022-08-20T12:31:35.001Z,99960.03
2022-08-20T12:34:40.971Z,99972.28
2022-08-20T12:37:44.819Z,99970.00
2022-08-20T12:40:47.926Z,99944.50
2022-08-20T12:43:50.525Z,99933.03
2022-08-20T12:47:07.892Z,99941.66
2022-08-20T12:50:31.939Z,99939.69
2022-08-20T12:53:35.137Z,99935.47
2022-08-20T12:56:37.755Z,99919.03
2022-08-20T12:59:41.126Z,99919.28
2022-08-20T13:02:43.736Z,99909.53
2022-08-20T13:05:46.927Z,99910.22
2022-08-20T13:08:49.540Z,99907.25
2022-08-20T13:11:52.759Z,99905.47
2022-08-20T13:14:55.459Z,99890.12
2022-08-20T13:18:01.314Z,99894.19
2022-08-20T13:21:04.036Z,99885.22
2022-08-20T13:24:07.104Z,99871.37
2022-08-20T13:27:15.355Z,99885.00
2022-08-20T13:30:19.819Z,99889.34
2022-08-20T13:33:22.505Z,99883.12
2022-08-20T13:36:26.023Z,99899.91
2022-08-20T13:39:28.982Z,99892.78
2022-08-20T13:42:31.995Z,99898.56
2022-08-20T13:45:36.457Z,99901.16
2022-08-20T13:48:39.645Z,99892.53
2022-08-20T13:51:42.287Z,99915.66
2022-08-20T13:54:45.270Z,99918.22
2022-08-20T13:57:48.008Z,99922.00
2022-08-20T14:00:51.248Z,99925.69
2022-08-20T14:03:54.153Z,99944.56
2022-08-20T14:06:56.876Z,99933.75
2022-08-20T14:10:07.497Z,99915.59
2022-08-20T14:13:15.382Z,99910.09
2022-08-20T14:16:25.449Z,99907.25
2022-08-20T14:19:30.700Z,99899.81
2022-08-20T14:22:36.410Z,99890.00
2022-08-20T14:25:39.454Z,99885.59
2022-08-20T14:28:42.543Z,99909.84
2022-08-20T14:31:45.146Z,99909.16
2022-08-20T14:34:48.111Z,99900.16
2022-08-20T14:37:53.100Z,99898.09
2022-08-20T14:40:56.061Z,99891.38
2022-08-20T14:43:58.684Z,99893.53
2022-08-20T14:47:13.276Z,99890.59
2022-08-20T14:50:30.052Z,99894.97
2022-08-20T14:53:37.468Z,99885.16
2022-08-20T14:56:42.918Z,99896.31
2022-08-20T14:59:46.955Z,99898.69
2022-08-20T15:02:49.686Z,99904.75
2022-08-20T15:05:52.584Z,99895.84
2022-08-20T15:08:57.284Z,99884.88
2022-08-20T15:12:00.634Z,99904.97
2022-08-20T15:15:15.272Z,99914.53
2022-08-20T15:18:19.296Z,99923.84
2022-08-20T15:21:22.073Z,99935.59
2022-08-20T15:24:25.068Z,99938.91
2022-08-20T15:27:27.880Z,99930.97
2022-08-20T15:30:31.588Z,99934.16
2022-08-20T15:33:34.365Z,99931.16
2022-08-20T15:36:37.347Z,99924.56
2022-08-20T15:39:45.745Z,99925.91
2022-08-20T15:42:48.751Z,99922.06
2022-08-20T15:45:51.334Z,99918.09
2022-08-20T15:48:54.338Z,99909.47
2022-08-20T15:51:57.222Z,99912.38
2022-08-20T15:55:02.417Z,99926.44
2022-08-20T15:58:14.948Z,99905.22
2022-08-20T16:01:27.392Z,99912.28
2022-08-20T16:04:49.113Z,99925.31
2022-08-20T16:08:19.950Z,99927.56
2022-08-20T16:11:32.035Z,99930.81
2022-08-20T16:14:39.245Z,99935.84
2022-08-20T16:18:06.392Z,99946.66
2022-08-20T16:21:13.785Z,99957.25
2022-08-20T16:24:17.175Z,99958.94
2022-08-20T16:27:27.840Z,99947.63
2022-08-20T16:30:47.425Z,99936.06
2022-08-20T16:34:29.897Z,99932.22
2022-08-20T16:37:45.176Z,99927.09
2022-08-20T16:41:06.644Z,99932.47
2022-08-20T16:44:31.764Z,99916.31
2022-08-20T16:47:36.653Z,99924.16
2022-08-20T16:51:03.571Z,99920.91
2022-08-20T16:54:06.751Z,99935.41
2022-08-20T16:57:12.813Z,99928.88
2022-08-20T17:00:39.043Z,99930.81
2022-08-20T17:03:50.673Z,99927.41
2022-08-20T17:07:01.339Z,99922.63
2022-08-20T17:11:12.374Z,99929.16
2022-08-20T17:14:18.219Z,99935.88
2022-08-20T17:17:31.829Z,99939.78
2022-08-20T17:20:44.842Z,99947.09
2022-08-20T17:23:56.460Z,99937.81
2022-08-20T17:27:10.711Z,99911.44
2022-08-20T17:30:19.883Z,99946.53
2022-08-20T17:33:33.975Z,99949.19
2022-08-20T17:36:46.903Z,99950.25
2022-08-20T17:40:05.308Z,99942.84
2022-08-20T17:43:22.042Z,99940.97
2022-08-20T17:46:28.048Z,99914.69
2022-08-20T17:49:39.456Z,99924.81
2022-08-20T17:52:55.273Z,99922.91
2022-08-20T17:56:03.056Z,99915.16
2022-08-20T18:00:00.305Z,99899.78
2022-08-20T18:02:49.860Z,99928.81
2022-08-20T18:06:10.719Z,99932.81
2022-08-20T18:09:31.193Z,99926.63
2022-08-20T18:12:40.636Z,99914.16
2022-08-20T18:15:56.504Z,99933.09
2022-08-20T18:19:42.108Z,99913.47
2022-08-20T18:23:11.810Z,99934.44
2022-08-20T18:26:19.033Z,99934.56
2022-08-20T18:29:27.561Z,99934.88
2022-08-20T18:32:35.584Z,99933.03
2022-08-20T18:35:45.886Z,99932.69
2022-08-20T18:39:23.349Z,99938.25
2022-08-20T18:42:31.259Z,99932.44
2022-08-20T18:45:36.531Z,99923.00
2022-08-20T18:48:51.132Z,99929.78
2022-08-20T18:51:54.087Z,99918.94
2022-08-20T18:55:00.103Z,99930.50
2022-08-20T18:58:09.687Z,99937.19
2022-08-20T19:01:14.176Z,99936.72
2022-08-20T19:04:23.687Z,99947.69
2022-08-20T19:07:43.268Z,99945.38
2022-08-20T19:11:13.212Z,99934.47
2022-08-20T19:14:34.545Z,99927.16
2022-08-20T19:17:40.273Z,99930.88
2022-08-20T19:20:54.436Z,99937.53
2022-08-20T19:24:01.498Z,99923.00
2022-08-20T19:27:07.639Z,99916.75
2022-08-20T19:30:13.567Z,99894.47
2022-08-20T19:33:26.716Z,99910.34
2022-08-20T19:36:33.413Z,99911.69
2022-08-20T19:39:37.116Z,99914.06
2022-08-20T19:42:43.254Z,99921.94
2022-08-20T19:45:50.308Z,99923.78
2022-08-20T19:49:12.366Z,99923.91
2022-08-20T19:52:27.347Z,99924.69
2022-08-20T19:55:41.212Z,99927.91
2022-08-20T19:58:45.252Z,99928.69
2022-08-20T20:01:58.806Z,99917.47
2022-08-20T20:05:06.486Z,99926.03
2022-08-20T20:08:11.579Z,99921.84
2022-08-20T20:11:20.817Z,99921.09
2022-08-20T20:14:32.661Z,99910.34
2022-08-20T20:17:36.761Z,99883.78
2022-08-20T20:20:57.728Z,99898.94
2022-08-20T20:24:01.908Z,99911.06
2022-08-20T20:27:22.206Z,99912.94
2022-08-20T20:30:33.564Z,99912.63
2022-08-20T20:33:44.099Z,99909.69
2022-08-20T20:36:48.009Z,99912.03
2022-08-20T20:40:00.709Z,99908.47
2022-08-20T20:43:09.067Z,99901.53
2022-08-20T20:46:24.600Z,99911.13
2022-08-20T20:49:30.698Z,99905.03
2022-08-20T20:52:36.952Z,99907.31
2022-08-20T20:55:41.906Z,99906.88
2022-08-20T20:58:45.126Z,99897.97
2022-08-20T21:01:57.516Z,99904.84
2022-08-20T21:05:00.344Z,99886.03
2022-08-20T21:08:06.263Z,99896.47
2022-08-20T21:11:11.424Z,99888.44
2022-08-20T21:14:14.900Z,99899.91
2022-08-20T21:17:21.994Z,99901.41
2022-08-20T21:20:25.573Z,99892.97
2022-08-20T21:23:40.209Z,99899.66
2022-08-20T21:26:45.525Z,99900.44
2022-08-20T21:29:48.604Z,99896.44
2022-08-20T21:32:51.911Z,99886.31
2022-08-20T21:35:54.993Z,99911.66
2022-08-20T21:38:58.295Z,99911.69
2022-08-20T21:42:03.145Z,99894.34
2022-08-20T21:45:13.895Z,99909.25
2022-08-20T21:48:21.061Z,99912.94
2022-08-20T21:51:24.081Z,99917.44
2022-08-20T21:54:27.125Z,99901.22
2022-08-20T21:57:33.315Z,99903.69
2022-08-20T22:00:47.924Z,99917.94
2022-08-20T22:03:51.905Z,99929.78
2022-08-20T22:06:55.095Z,99924.28
2022-08-20T22:09:58.021Z,99931.91
2022-08-20T22:13:00.706Z,99931.50
2022-08-20T22:16:18.467Z,99926.97
2022-08-20T22:19:21.188Z,99918.69
2022-08-20T22:22:24.271Z,99912.69
2022-08-20T22:25:26.934Z,99896.00
2022-08-20T22:28:29.950Z,99896.44
2022-08-20T22:31:36.150Z,99897.62
2022-08-20T22:34:39.184Z,99898.97
2022-08-20T22:37:41.828Z,99899.38
2022-08-20T22:40:45.475Z,99919.75
2022-08-20T22:43:56.876Z,99926.53
2022-08-20T22:47:05.019Z,99934.97
2022-08-20T22:50:10.231Z,99933.84
2022-08-20T22:53:14.684Z,99901.84
2022-08-20T22:56:19.824Z,99921.94
2022-08-20T22:59:25.398Z,99908.81
2022-08-20T23:02:28.017Z,99932.09
2022-08-20T23:05:33.599Z,99932.09
2022-08-20T23:08:36.679Z,99932.00
2022-08-20T23:11:39.639Z,99935.13
2022-08-20T23:14:42.256Z,99914.56
2022-08-20T23:17:45.714Z,99908.44
2022-08-20T23:20:56.305Z,99917.34
2022-08-20T23:23:59.275Z,99904.44
2022-08-20T23:27:02.179Z,99909.78
2022-08-20T23:30:05.778Z,99907.91
2022-08-20T23:33:08.538Z,99906.78
2022-08-20T23:36:13.675Z,99914.03
2022-08-20T23:39:16.512Z,99913.00
2022-08-20T23:42:19.471Z,99912.91
2022-08-20T23:45:22.512Z,99917.69
2022-08-20T23:48:26.508Z,99920.69
2022-08-20T23:51:29.306Z,99914.12
2022-08-20T23:54:32.969Z,99909.78
2022-08-20T23:57:36.113Z,99907.66
